WetterOnline ( https://www.wetteronline.de )

Wetter aktuell Hohenpeißenberg

Aktuelles Wetter: Hohenpeißenberg (986m)

6-stündlich | Neueste Meldungen
Ortszeit Temperatur Wetter
Di, 15.10. 8:00 15.1° C wolkenlos
Di, 15.10. 2:00 16.1° C wolkenlos
Mo, 14.10. 20:00 15.2° C wolkenlos
Mo, 14.10. 14:00 17.3° C bedeckt
Mo, 14.10. 8:00 18.2° C wolkenlos
Mo, 14.10. 2:00 20.5° C wolkenlos
So, 13.10. 20:00 17.6° C wolkenlos
So, 13.10. 14:00 19.9° C bedeckt
Ortszeit Temperatur Wetter
Di, 15.10. 11:30 19.8° C wolkenlos
Di, 15.10. 11:20 19.8° C wolkenlos
Di, 15.10. 11:10 19.8° C wolkenlos
Di, 15.10. 11:00 19.4° C fast wolkenlos
Di, 15.10. 10:50 19.4° C fast wolkenlos
Di, 15.10. 10:40 18.0° C leicht bewölkt
Di, 15.10. 10:30 17.8° C wolkig
Di, 15.10. 10:00 18.8° C leicht bewölkt
Di, 15.10. 9:30 18.0° C wolkenlos
Di, 15.10. 9:00 17.2° C wolkenlos
Di, 15.10. 8:30 15.8° C wolkenlos
Di, 15.10. 8:00 15.1° C wolkenlos
Ortszeit Relative Feuchte Sichtweite
Di, 15.10. 8:00 46% >70 km
Di, 15.10. 2:00 49% 60 km
Mo, 14.10. 20:00 67% 40 km
Mo, 14.10. 14:00 59% 45 km
Mo, 14.10. 8:00 39% 40 km
Mo, 14.10. 2:00 34% 50 km
So, 13.10. 20:00 63% 50 km
So, 13.10. 14:00 39% 29 km
Ortszeit Relative Feuchte Sichtweite
Di, 15.10. 11:30 41% >70 km
Di, 15.10. 11:20 41% -
Di, 15.10. 11:10 41% -
Di, 15.10. 11:00 40% 60 km
Di, 15.10. 10:50 40% -
Di, 15.10. 10:40 51% -
Di, 15.10. 10:30 51% 60 km
Di, 15.10. 10:00 38% 45 km
Di, 15.10. 9:30 35% 65 km
Di, 15.10. 9:00 38% 65 km
Di, 15.10. 8:30 44% >70 km
Di, 15.10. 8:00 46% >70 km
Ortszeit Niederschlagsmenge Niederschlagsart
Di, 15.10. 8:00 0.0 l/m2 in 12 Std. -
Di, 15.10. 2:00 0.0 l/m2 in 6 Std. -
Mo, 14.10. 20:00 0.0 l/m2 in 12 Std. -
Mo, 14.10. 14:00 0.0 l/m2 in 6 Std. -
Mo, 14.10. 8:00 0.0 l/m2 in 12 Std. -
Mo, 14.10. 2:00 0.0 l/m2 in 6 Std. -
So, 13.10. 20:00 0.0 l/m2 in 12 Std. -
So, 13.10. 14:00 0.0 l/m2 in 6 Std. -
Ortszeit Niederschlagsmenge Niederschlagsart
Di, 15.10. 11:30 0.0 l/m2 in 1 Std. -
Di, 15.10. 11:20 keine Meldung -
Di, 15.10. 11:10 keine Meldung -
Di, 15.10. 11:00 0.0 l/m2 in 1 Std. -
Di, 15.10. 10:50 keine Meldung -
Di, 15.10. 10:40 keine Meldung -
Di, 15.10. 10:30 0.0 l/m2 in 1 Std. -
Di, 15.10. 10:00 0.0 l/m2 in 1 Std. -
Di, 15.10. 9:30 0.0 l/m2 in 1 Std. -
Di, 15.10. 9:00 0.0 l/m2 in 1 Std. -
Di, 15.10. 8:30 0.0 l/m2 in 1 Std. -
Di, 15.10. 8:00 0.0 l/m2 in 1 Std. -
Ortszeit Stärke Spitze Richtung
km/h Bft. km/h Grad Sektor
Di, 15.10. 8:00 20 4 28 160° S
Di, 15.10. 2:00 17 3 28 250° W
Mo, 14.10. 20:00 9 2 22 250° W
Mo, 14.10. 14:00 11 2 22 70° O
Mo, 14.10. 8:00 13 3 22 130° SO
Mo, 14.10. 2:00 6 1 17 120° SO
So, 13.10. 20:00 14 3 18 150° SO
So, 13.10. 14:00 7 2 25 80° O
Ortszeit Stärke Spitze Richtung
km/h Bft. km/h Grad Sektor
Di, 15.10. 11:30 17 3 22 170° S
Di, 15.10. 11:20 17 3 - 170° S
Di, 15.10. 11:10 13 3 - 160° S
Di, 15.10. 11:00 13 3 26 170° S
Di, 15.10. 10:50 13 3 - 170° S
Di, 15.10. 10:40 7 2 - 180° S
Di, 15.10. 10:30 13 3 26 160° S
Di, 15.10. 10:00 13 3 19 140° SO
Di, 15.10. 9:30 11 2 18 130° SO
Di, 15.10. 9:00 11 2 25 150° SO
Di, 15.10. 8:30 15 3 24 170° S
Di, 15.10. 8:00 20 4 28 160° S
Ortszeit Untergrenze Bedeckung Gattung
total tief tief mittel hoch
Di, 15.10. 8:00 - 0/8 0/8 - - -
Di, 15.10. 2:00 - 0/8 0/8 - - -
Mo, 14.10. 20:00 - 0/8 0/8 - - -
Mo, 14.10. 14:00 3900 m 8/8 8/8 - - -
Mo, 14.10. 8:00 - 0/8 0/8 - - -
Mo, 14.10. 2:00 - 0/8 0/8 - - -
So, 13.10. 20:00 - 0/8 0/8 - - -
So, 13.10. 14:00 4200 m 8/8 8/8 - - -
Ortszeit Bedeckungsgrad in Achtel und Wolkenuntergrenze
Di, 15.10. 11:30 keine Wolken
Di, 15.10. 11:20 keine Wolken
Di, 15.10. 11:10 keine Wolken
Di, 15.10. 11:00 1(8700m)
Di, 15.10. 10:50 1(8700m)
Di, 15.10. 10:40 3(8700m)
Di, 15.10. 10:30 7(8700m)
Di, 15.10. 10:00 6(9000m)
Di, 15.10. 9:30 3(9000m)
Di, 15.10. 9:00 keine Wolken
Di, 15.10. 8:30 keine Wolken
Di, 15.10. 8:00 keine Wolken
Ortszeit Stationsdruck (hPa) Tendenz (hPa in 3 Std.)
Di, 15.10. 8:00 899 - 1,5
Di, 15.10. 2:00 901 - 0,2
Mo, 14.10. 20:00 903 - 0,4
Mo, 14.10. 14:00 904 - 1,2
Mo, 14.10. 8:00 906 - 0,6
Mo, 14.10. 2:00 907 + 0,3
So, 13.10. 20:00 907 + 0,4
So, 13.10. 14:00 906 - 0,7
Ortszeit Stationsdruck (hPa) Tendenz (hPa in 3 Std.)
Di, 15.10. 11:30 898 - 0,9
Di, 15.10. 11:20 898 keine Meldung
Di, 15.10. 11:10 898 keine Meldung
Di, 15.10. 11:00 898 - 0,8
Di, 15.10. 10:50 898 keine Meldung
Di, 15.10. 10:40 898 keine Meldung
Di, 15.10. 10:30 898 - 1,0
Di, 15.10. 10:00 898 - 0,9
Di, 15.10. 9:30 898 - 1,0
Di, 15.10. 9:00 899 - 0,8
Di, 15.10. 8:30 898 - 1,4
Di, 15.10. 8:00 899 - 1,5
Ortszeit Schneehöhe (cm)
Di, 15.10. 8:00 0
Di, 15.10. 2:00 0
Mo, 14.10. 20:00 0
Mo, 14.10. 14:00 0
Mo, 14.10. 8:00 0
Mo, 14.10. 2:00 0
So, 13.10. 20:00 0
So, 13.10. 14:00 0
Ortszeit Schneehöhe (cm)
Di, 15.10. 11:30 0
Di, 15.10. 11:20 0
Di, 15.10. 11:10 0
Di, 15.10. 11:00 0
Di, 15.10. 10:50 0
Di, 15.10. 10:40 0
Di, 15.10. 10:30 0
Di, 15.10. 10:00 0
Di, 15.10. 9:30 0
Di, 15.10. 9:00 0
Di, 15.10. 8:30 0
Di, 15.10. 8:00 0
Link zu dieser Seite / Seite empfehlen

Das Wetter in ...